sensor_id;sensor_type;location;lat;lon;timestamp;temperature;humidity
15700;DHT22;7950;42.744;23.174;2023-04-01T00:00:06;11.10;99.90
15700;DHT22;7950;42.744;23.174;2023-04-01T00:02:35;11.00;99.90
15700;DHT22;7950;42.744;23.174;2023-04-01T00:05:06;11.00;99.90
15700;DHT22;7950;42.744;23.174;2023-04-01T00:07:40;11.00;99.90
15700;DHT22;7950;42.744;23.174;2023-04-01T00:10:11;10.90;99.90
15700;DHT22;7950;42.744;23.174;2023-04-01T00:12:41;10.90;99.90
15700;DHT22;7950;42.744;23.174;2023-04-01T00:15:11;10.80;99.90
15700;DHT22;7950;42.744;23.174;2023-04-01T00:17:40;10.80;99.90
15700;DHT22;7950;42.744;23.174;2023-04-01T00:20:11;10.80;99.90
15700;DHT22;7950;42.744;23.174;2023-04-01T00:22:41;10.80;99.90
15700;DHT22;7950;42.744;23.174;2023-04-01T00:25:09;10.70;99.90
15700;DHT22;7950;42.744;23.174;2023-04-01T00:27:38;10.70;99.90
15700;DHT22;7950;42.744;23.174;2023-04-01T00:30:11;10.70;99.90
15700;DHT22;7950;42.744;23.174;2023-04-01T00:32:39;10.70;99.90
15700;DHT22;7950;42.744;23.174;2023-04-01T00:35:10;10.70;99.90
15700;DHT22;7950;42.744;23.174;2023-04-01T00:37:39;10.60;99.90
15700;DHT22;7950;42.744;23.174;2023-04-01T00:40:11;10.60;99.90
15700;DHT22;7950;42.744;23.174;2023-04-01T00:42:51;10.60;99.90
15700;DHT22;7950;42.744;23.174;2023-04-01T00:45:37;11.00;99.90
15700;DHT22;7950;42.744;23.174;2023-04-01T00:48:11;11.20;99.90
15700;DHT22;7950;42.744;23.174;2023-04-01T00:50:47;11.20;99.90
15700;DHT22;7950;42.744;23.174;2023-04-01T00:53:19;11.20;99.90
15700;DHT22;7950;42.744;23.174;2023-04-01T00:55:58;11.30;99.90
15700;DHT22;7950;42.744;23.174;2023-04-01T00:58:34;11.30;99.90
15700;DHT22;7950;42.744;23.174;2023-04-01T01:01:06;11.30;99.90
15700;DHT22;7950;42.744;23.174;2023-04-01T01:03:37;11.50;99.90
15700;DHT22;7950;42.744;23.174;2023-04-01T01:06:14;11.50;99.90
15700;DHT22;7950;42.744;23.174;2023-04-01T01:09:10;11.70;99.90
15700;DHT22;7950;42.744;23.174;2023-04-01T01:11:51;12.00;99.90
15700;DHT22;7950;42.744;23.174;2023-04-01T01:14:34;12.10;99.10
15700;DHT22;7950;42.744;23.174;2023-04-01T01:17:13;12.20;98.50
15700;DHT22;7950;42.744;23.174;2023-04-01T01:20:18;12.40;97.30
15700;DHT22;7950;42.744;23.174;2023-04-01T01:26:48;12.60;93.90
15700;DHT22;7950;42.744;23.174;2023-04-01T01:29:39;12.80;91.80
15700;DHT22;7950;42.744;23.174;2023-04-01T01:32:30;13.10;90.30
15700;DHT22;7950;42.744;23.174;2023-04-01T01:35:22;13.10;88.20
15700;DHT22;7950;42.744;23.174;2023-04-01T01:37:56;13.20;87.10
15700;DHT22;7950;42.744;23.174;2023-04-01T01:40:29;13.20;87.80
15700;DHT22;7950;42.744;23.174;2023-04-01T01:43:06;13.20;88.20
15700;DHT22;7950;42.744;23.174;2023-04-01T01:45:43;13.20;88.40
15700;DHT22;7950;42.744;23.174;2023-04-01T01:48:16;13.20;87.20
15700;DHT22;7950;42.744;23.174;2023-04-01T01:50:49;13.20;86.40
15700;DHT22;7950;42.744;23.174;2023-04-01T01:53:18;13.20;86.00
15700;DHT22;7950;42.744;23.174;2023-04-01T01:55:47;13.20;85.40
15700;DHT22;7950;42.744;23.174;2023-04-01T01:58:22;13.30;84.90
15700;DHT22;7950;42.744;23.174;2023-04-01T02:00:57;13.30;83.70
15700;DHT22;7950;42.744;23.174;2023-04-01T02:03:30;13.20;85.10
15700;DHT22;7950;42.744;23.174;2023-04-01T02:06:06;13.20;88.60
15700;DHT22;7950;42.744;23.174;2023-04-01T02:08:40;13.00;91.00
15700;DHT22;7950;42.744;23.174;2023-04-01T02:11:38;12.60;95.30
15700;DHT22;7950;42.744;23.174;2023-04-01T02:14:19;12.20;98.40
15700;DHT22;7950;42.744;23.174;2023-04-01T02:16:52;12.00;99.90
15700;DHT22;7950;42.744;23.174;2023-04-01T02:19:29;11.80;99.90
15700;DHT22;7950;42.744;23.174;2023-04-01T02:22:05;11.60;99.90
15700;DHT22;7950;42.744;23.174;2023-04-01T02:24:40;11.50;99.90
15700;DHT22;7950;42.744;23.174;2023-04-01T02:27:10;11.40;99.90
15700;DHT22;7950;42.744;23.174;2023-04-01T02:29:39;11.40;99.90
15700;DHT22;7950;42.744;23.174;2023-04-01T02:32:09;11.50;99.90
15700;DHT22;7950;42.744;23.174;2023-04-01T02:34:38;11.60;99.60
15700;DHT22;7950;42.744;23.174;2023-04-01T02:37:08;11.80;97.40
15700;DHT22;7950;42.744;23.174;2023-04-01T02:39:38;11.80;98.30
15700;DHT22;7950;42.744;23.174;2023-04-01T02:42:09;11.80;99.90
15700;DHT22;7950;42.744;23.174;2023-04-01T02:44:38;11.70;99.90
15700;DHT22;7950;42.744;23.174;2023-04-01T02:47:08;11.60;99.90
15700;DHT22;7950;42.744;23.174;2023-04-01T02:49:37;11.60;99.90
15700;DHT22;7950;42.744;23.174;2023-04-01T02:52:05;11.70;99.90
15700;DHT22;7950;42.744;23.174;2023-04-01T02:54:35;11.80;98.80
15700;DHT22;7950;42.744;23.174;2023-04-01T02:57:04;11.70;99.90
15700;DHT22;7950;42.744;23.174;2023-04-01T02:59:32;11.70;99.90
15700;DHT22;7950;42.744;23.174;2023-04-01T03:02:01;11.60;99.90
15700;DHT22;7950;42.744;23.174;2023-04-01T03:04:30;11.60;99.90
15700;DHT22;7950;42.744;23.174;2023-04-01T03:06:58;11.90;98.60
15700;DHT22;7950;42.744;23.174;2023-04-01T03:09:27;12.30;98.30
15700;DHT22;7950;42.744;23.174;2023-04-01T03:11:57;12.40;97.40
15700;DHT22;7950;42.744;23.174;2023-04-01T03:17:48;12.30;99.90
15700;DHT22;7950;42.744;23.174;2023-04-01T03:20:16;12.30;99.90
15700;DHT22;7950;42.744;23.174;2023-04-01T03:22:46;12.20;99.90
15700;DHT22;7950;42.744;23.174;2023-04-01T03:25:15;12.10;99.90
15700;DHT22;7950;42.744;23.174;2023-04-01T03:27:45;12.00;99.90
15700;DHT22;7950;42.744;23.174;2023-04-01T03:30:14;11.90;99.90
15700;DHT22;7950;42.744;23.174;2023-04-01T03:32:42;11.90;99.90
15700;DHT22;7950;42.744;23.174;2023-04-01T03:35:11;11.90;99.90
15700;DHT22;7950;42.744;23.174;2023-04-01T03:37:40;11.90;99.90
15700;DHT22;7950;42.744;23.174;2023-04-01T03:40:09;11.90;99.90
15700;DHT22;7950;42.744;23.174;2023-04-01T03:42:38;11.90;99.90
15700;DHT22;7950;42.744;23.174;2023-04-01T03:45:09;11.90;99.90
15700;DHT22;7950;42.744;23.174;2023-04-01T03:47:39;11.80;99.90
15700;DHT22;7950;42.744;23.174;2023-04-01T03:50:08;11.70;99.90
15700;DHT22;7950;42.744;23.174;2023-04-01T03:52:37;11.70;99.90
15700;DHT22;7950;42.744;23.174;2023-04-01T03:55:07;11.50;99.90
15700;DHT22;7950;42.744;23.174;2023-04-01T03:57:36;11.40;99.90
15700;DHT22;7950;42.744;23.174;2023-04-01T04:00:05;11.20;99.90
15700;DHT22;7950;42.744;23.174;2023-04-01T04:02:36;11.10;99.90
15700;DHT22;7950;42.744;23.174;2023-04-01T04:05:05;11.00;99.90
15700;DHT22;7950;42.744;23.174;2023-04-01T04:07:35;10.90;99.90
15700;DHT22;7950;42.744;23.174;2023-04-01T04:10:04;10.70;99.90
15700;DHT22;7950;42.744;23.174;2023-04-01T04:12:33;10.60;99.90
15700;DHT22;7950;42.744;23.174;2023-04-01T04:15:02;10.40;99.90
15700;DHT22;7950;42.744;23.174;2023-04-01T04:17:32;10.30;99.90
15700;DHT22;7950;42.744;23.174;2023-04-01T04:20:01;10.20;99.90
15700;DHT22;7950;42.744;23.174;2023-04-01T04:22:56;10.20;99.90
15700;DHT22;7950;42.744;23.174;2023-04-01T04:25:30;10.10;99.90
15700;DHT22;7950;42.744;23.174;2023-04-01T04:27:59;10.00;99.90
15700;DHT22;7950;42.744;23.174;2023-04-01T04:30:27;10.00;99.90
15700;DHT22;7950;42.744;23.174;2023-04-01T04:32:57;10.00;99.90
15700;DHT22;7950;42.744;23.174;2023-04-01T04:35:26;9.90;99.90
15700;DHT22;7950;42.744;23.174;2023-04-01T04:37:54;9.90;99.90
15700;DHT22;7950;42.744;23.174;2023-04-01T04:40:23;9.80;99.90
15700;DHT22;7950;42.744;23.174;2023-04-01T04:42:51;9.70;99.90
15700;DHT22;7950;42.744;23.174;2023-04-01T04:45:20;9.60;99.90
15700;DHT22;7950;42.744;23.174;2023-04-01T04:47:48;9.60;99.90
15700;DHT22;7950;42.744;23.174;2023-04-01T04:50:19;9.60;99.90
15700;DHT22;7950;42.744;23.174;2023-04-01T04:53:12;9.50;99.90
15700;DHT22;7950;42.744;23.174;2023-04-01T04:55:45;9.50;99.90
15700;DHT22;7950;42.744;23.174;2023-04-01T04:58:15;9.50;99.90
15700;DHT22;7950;42.744;23.174;2023-04-01T05:00:44;9.50;99.90
15700;DHT22;7950;42.744;23.174;2023-04-01T05:03:38;9.50;99.90
15700;DHT22;7950;42.744;23.174;2023-04-01T05:06:11;9.50;99.90
15700;DHT22;7950;42.744;23.174;2023-04-01T05:08:41;9.60;99.90
15700;DHT22;7950;42.744;23.174;2023-04-01T05:11:13;9.60;99.90
15700;DHT22;7950;42.744;23.174;2023-04-01T05:13:51;9.60;99.90
15700;DHT22;7950;42.744;23.174;2023-04-01T05:16:20;9.60;99.90
15700;DHT22;7950;42.744;23.174;2023-04-01T05:18:49;9.50;99.90
15700;DHT22;7950;42.744;23.174;2023-04-01T05:21:19;9.50;99.90
15700;DHT22;7950;42.744;23.174;2023-04-01T05:23:47;9.50;99.90
15700;DHT22;7950;42.744;23.174;2023-04-01T05:26:16;9.50;99.90
15700;DHT22;7950;42.744;23.174;2023-04-01T05:28:44;9.50;99.90
15700;DHT22;7950;42.744;23.174;2023-04-01T05:31:13;9.70;99.90
15700;DHT22;7950;42.744;23.174;2023-04-01T05:33:41;9.80;99.90
15700;DHT22;7950;42.744;23.174;2023-04-01T05:36:11;9.90;99.90
15700;DHT22;7950;42.744;23.174;2023-04-01T05:38:43;10.10;99.90
15700;DHT22;7950;42.744;23.174;2023-04-01T05:41:13;10.30;99.90
15700;DHT22;7950;42.744;23.174;2023-04-01T05:43:42;10.50;99.90
15700;DHT22;7950;42.744;23.174;2023-04-01T05:46:11;10.80;99.90
15700;DHT22;7950;42.744;23.174;2023-04-01T05:48:39;11.10;99.90
15700;DHT22;7950;42.744;23.174;2023-04-01T05:51:12;11.40;99.90
15700;DHT22;7950;42.744;23.174;2023-04-01T05:53:43;11.80;99.90
15700;DHT22;7950;42.744;23.174;2023-04-01T05:56:12;12.10;99.90
15700;DHT22;7950;42.744;23.174;2023-04-01T05:58:41;12.40;99.90
15700;DHT22;7950;42.744;23.174;2023-04-01T06:01:10;12.60;99.90
15700;DHT22;7950;42.744;23.174;2023-04-01T06:04:09;12.90;99.90
15700;DHT22;7950;42.744;23.174;2023-04-01T06:06:41;13.20;99.90
15700;DHT22;7950;42.744;23.174;2023-04-01T06:09:51;13.40;99.90
15700;DHT22;7950;42.744;23.174;2023-04-01T06:12:29;13.60;99.90
15700;DHT22;7950;42.744;23.174;2023-04-01T06:15:20;13.60;99.90
15700;DHT22;7950;42.744;23.174;2023-04-01T06:18:11;13.50;99.90
15700;DHT22;7950;42.744;23.174;2023-04-01T06:21:19;13.40;99.90
15700;DHT22;7950;42.744;23.174;2023-04-01T06:24:08;13.40;99.90
15700;DHT22;7950;42.744;23.174;2023-04-01T06:26:58;13.30;99.90
15700;DHT22;7950;42.744;23.174;2023-04-01T06:29:47;13.20;99.90
15700;DHT22;7950;42.744;23.174;2023-04-01T06:35:51;12.80;99.90
15700;DHT22;7950;42.744;23.174;2023-04-01T06:38:53;12.70;99.90
15700;DHT22;7950;42.744;23.174;2023-04-01T06:45:11;12.60;99.90
15700;DHT22;7950;42.744;23.174;2023-04-01T06:47:58;12.60;99.90
15700;DHT22;7950;42.744;23.174;2023-04-01T06:50:44;12.60;99.90
15700;DHT22;7950;42.744;23.174;2023-04-01T06:53:29;12.40;99.90
15700;DHT22;7950;42.744;23.174;2023-04-01T06:56:07;12.40;99.90
15700;DHT22;7950;42.744;23.174;2023-04-01T06:58:44;12.50;99.90
15700;DHT22;7950;42.744;23.174;2023-04-01T07:01:22;12.50;99.90
15700;DHT22;7950;42.744;23.174;2023-04-01T07:03:57;12.50;99.90
15700;DHT22;7950;42.744;23.174;2023-04-01T07:06:32;12.60;99.90
15700;DHT22;7950;42.744;23.174;2023-04-01T07:09:08;12.60;99.90
15700;DHT22;7950;42.744;23.174;2023-04-01T07:12:07;12.70;99.90
15700;DHT22;7950;42.744;23.174;2023-04-01T07:14:44;12.70;99.90
15700;DHT22;7950;42.744;23.174;2023-04-01T07:17:19;12.70;99.90
15700;DHT22;7950;42.744;23.174;2023-04-01T07:19:53;12.80;99.90
15700;DHT22;7950;42.744;23.174;2023-04-01T07:22:29;12.80;99.90
15700;DHT22;7950;42.744;23.174;2023-04-01T07:25:03;12.80;99.90
15700;DHT22;7950;42.744;23.174;2023-04-01T07:27:38;12.80;99.90
15700;DHT22;7950;42.744;23.174;2023-04-01T07:30:14;12.90;99.90
15700;DHT22;7950;42.744;23.174;2023-04-01T07:32:47;12.90;99.90
15700;DHT22;7950;42.744;23.174;2023-04-01T07:35:24;13.00;99.90
15700;DHT22;7950;42.744;23.174;2023-04-01T07:38:14;13.00;99.90
15700;DHT22;7950;42.744;23.174;2023-04-01T07:41:02;13.00;99.90
15700;DHT22;7950;42.744;23.174;2023-04-01T07:44:11;12.90;99.90
15700;DHT22;7950;42.744;23.174;2023-04-01T07:46:58;13.00;99.90
15700;DHT22;7950;42.744;23.174;2023-04-01T07:49:43;12.90;99.90
15700;DHT22;7950;42.744;23.174;2023-04-01T07:52:31;12.80;99.90
15700;DHT22;7950;42.744;23.174;2023-04-01T07:55:08;12.80;99.90
15700;DHT22;7950;42.744;23.174;2023-04-01T07:57:48;12.80;99.90
15700;DHT22;7950;42.744;23.174;2023-04-01T08:00:35;12.80;99.90
15700;DHT22;7950;42.744;23.174;2023-04-01T08:03:21;12.80;99.90
15700;DHT22;7950;42.744;23.174;2023-04-01T08:06:07;12.90;99.90
15700;DHT22;7950;42.744;23.174;2023-04-01T08:09:04;12.90;99.90
15700;DHT22;7950;42.744;23.174;2023-04-01T08:11:55;12.80;99.90
15700;DHT22;7950;42.744;23.174;2023-04-01T08:14:38;12.90;99.90
15700;DHT22;7950;42.744;23.174;2023-04-01T08:17:18;13.00;99.90
15700;DHT22;7950;42.744;23.174;2023-04-01T08:20:08;13.00;99.90
15700;DHT22;7950;42.744;23.174;2023-04-01T08:22:48;13.10;99.90
15700;DHT22;7950;42.744;23.174;2023-04-01T08:25:22;13.10;99.90
15700;DHT22;7950;42.744;23.174;2023-04-01T08:27:56;13.20;99.90
15700;DHT22;7950;42.744;23.174;2023-04-01T08:30:38;13.40;99.90
15700;DHT22;7950;42.744;23.174;2023-04-01T08:33:36;13.60;99.90
15700;DHT22;7950;42.744;23.174;2023-04-01T08:36:09;13.80;99.90
15700;DHT22;7950;42.744;23.174;2023-04-01T08:38:42;14.00;99.90
15700;DHT22;7950;42.744;23.174;2023-04-01T08:41:34;14.20;99.90
15700;DHT22;7950;42.744;23.174;2023-04-01T08:47:42;15.00;99.90
15700;DHT22;7950;42.744;23.174;2023-04-01T08:50:35;15.20;99.90
15700;DHT22;7950;42.744;23.174;2023-04-01T08:53:18;15.40;99.90
15700;DHT22;7950;42.744;23.174;2023-04-01T08:56:03;15.50;99.90
15700;DHT22;7950;42.744;23.174;2023-04-01T08:58:56;15.60;99.90
15700;DHT22;7950;42.744;23.174;2023-04-01T09:01:51;15.60;98.20
15700;DHT22;7950;42.744;23.174;2023-04-01T09:04:44;15.60;98.40
15700;DHT22;7950;42.744;23.174;2023-04-01T09:07:39;15.50;97.00
15700;DHT22;7950;42.744;23.174;2023-04-01T09:10:55;15.40;98.80
15700;DHT22;7950;42.744;23.174;2023-04-01T09:20:32;15.20;99.90
15700;DHT22;7950;42.744;23.174;2023-04-01T09:27:15;15.10;99.90
15700;DHT22;7950;42.744;23.174;2023-04-01T09:36:44;15.20;99.90
15700;DHT22;7950;42.744;23.174;2023-04-01T09:39:31;15.20;99.90
15700;DHT22;7950;42.744;23.174;2023-04-01T09:45:40;15.30;99.90
15700;DHT22;7950;42.744;23.174;2023-04-01T09:48:25;15.40;99.90
15700;DHT22;7950;42.744;23.174;2023-04-01T09:51:15;15.50;99.90
15700;DHT22;7950;42.744;23.174;2023-04-01T09:54:11;15.70;99.90
15700;DHT22;7950;42.744;23.174;2023-04-01T09:57:26;15.80;99.90
15700;DHT22;7950;42.744;23.174;2023-04-01T10:00:28;16.00;99.90
15700;DHT22;7950;42.744;23.174;2023-04-01T10:03:59;16.00;98.50
15700;DHT22;7950;42.744;23.174;2023-04-01T10:17:20;16.60;71.70
15700;DHT22;7950;42.744;23.174;2023-04-01T10:20:21;16.60;71.50
15700;DHT22;7950;42.744;23.174;2023-04-01T10:23:22;16.50;71.80
15700;DHT22;7950;42.744;23.174;2023-04-01T10:30:04;16.70;70.30
15700;DHT22;7950;42.744;23.174;2023-04-01T10:33:29;16.80;71.10
15700;DHT22;7950;42.744;23.174;2023-04-01T10:36:52;16.90;69.20
15700;DHT22;7950;42.744;23.174;2023-04-01T10:39:38;16.90;68.50
15700;DHT22;7950;42.744;23.174;2023-04-01T10:43:25;17.00;69.30
15700;DHT22;7950;42.744;23.174;2023-04-01T10:49:46;17.00;66.80
15700;DHT22;7950;42.744;23.174;2023-04-01T10:56:21;17.00;66.50
15700;DHT22;7950;42.744;23.174;2023-04-01T11:13:33;17.20;65.00
15700;DHT22;7950;42.744;23.174;2023-04-01T11:23:03;17.00;66.60
15700;DHT22;7950;42.744;23.174;2023-04-01T11:26:13;16.80;71.60
15700;DHT22;7950;42.744;23.174;2023-04-01T11:29:15;16.20;85.00
15700;DHT22;7950;42.744;23.174;2023-04-01T11:32:25;15.40;99.90
15700;DHT22;7950;42.744;23.174;2023-04-01T11:38:24;13.90;99.90
15700;DHT22;7950;42.744;23.174;2023-04-01T11:41:24;13.50;99.90
15700;DHT22;7950;42.744;23.174;2023-04-01T11:44:15;13.10;99.90
15700;DHT22;7950;42.744;23.174;2023-04-01T11:47:12;12.80;99.90
15700;DHT22;7950;42.744;23.174;2023-04-01T11:49:59;12.80;99.90
15700;DHT22;7950;42.744;23.174;2023-04-01T11:53:04;12.60;99.90
15700;DHT22;7950;42.744;23.174;2023-04-01T11:56:02;12.50;99.90
15700;DHT22;7950;42.744;23.174;2023-04-01T12:02:16;12.20;99.90
15700;DHT22;7950;42.744;23.174;2023-04-01T12:05:08;12.10;99.90
15700;DHT22;7950;42.744;23.174;2023-04-01T12:08:04;12.10;99.90
15700;DHT22;7950;42.744;23.174;2023-04-01T12:10:45;12.10;99.90
15700;DHT22;7950;42.744;23.174;2023-04-01T12:13:37;12.00;99.90
15700;DHT22;7950;42.744;23.174;2023-04-01T12:19:23;12.10;99.90
15700;DHT22;7950;42.744;23.174;2023-04-01T12:22:17;12.10;99.90
15700;DHT22;7950;42.744;23.174;2023-04-01T12:25:00;12.10;99.90
15700;DHT22;7950;42.744;23.174;2023-04-01T12:27:49;12.10;99.90
15700;DHT22;7950;42.744;23.174;2023-04-01T12:30:45;12.10;99.90
15700;DHT22;7950;42.744;23.174;2023-04-01T12:33:53;12.10;99.90
15700;DHT22;7950;42.744;23.174;2023-04-01T12:36:52;12.00;99.90
15700;DHT22;7950;42.744;23.174;2023-04-01T12:39:37;11.90;99.90
15700;DHT22;7950;42.744;23.174;2023-04-01T12:42:33;11.90;99.90
15700;DHT22;7950;42.744;23.174;2023-04-01T12:45:39;11.80;99.90
15700;DHT22;7950;42.744;23.174;2023-04-01T12:48:27;11.70;99.90
15700;DHT22;7950;42.744;23.174;2023-04-01T12:51:44;11.70;99.90
15700;DHT22;7950;42.744;23.174;2023-04-01T12:58:38;11.60;99.90
15700;DHT22;7950;42.744;23.174;2023-04-01T13:01:40;11.60;99.90
15700;DHT22;7950;42.744;23.174;2023-04-01T13:04:47;11.60;99.90
15700;DHT22;7950;42.744;23.174;2023-04-01T13:08:05;11.80;99.90
15700;DHT22;7950;42.744;23.174;2023-04-01T13:11:02;12.00;99.90
15700;DHT22;7950;42.744;23.174;2023-04-01T13:14:05;12.40;99.90
15700;DHT22;7950;42.744;23.174;2023-04-01T13:17:16;12.60;99.90
15700;DHT22;7950;42.744;23.174;2023-04-01T13:19:53;12.70;99.90
15700;DHT22;7950;42.744;23.174;2023-04-01T13:22:41;12.70;99.90
15700;DHT22;7950;42.744;23.174;2023-04-01T13:25:26;12.80;99.90
15700;DHT22;7950;42.744;23.174;2023-04-01T13:28:08;12.90;99.90
15700;DHT22;7950;42.744;23.174;2023-04-01T13:30:49;13.20;99.90
15700;DHT22;7950;42.744;23.174;2023-04-01T13:33:53;13.60;99.90
15700;DHT22;7950;42.744;23.174;2023-04-01T13:36:39;13.90;99.90
15700;DHT22;7950;42.744;23.174;2023-04-01T13:39:28;13.90;99.90
15700;DHT22;7950;42.744;23.174;2023-04-01T13:42:18;14.00;99.90
15700;DHT22;7950;42.744;23.174;2023-04-01T13:44:56;14.10;99.90
15700;DHT22;7950;42.744;23.174;2023-04-01T13:47:52;14.20;99.90
15700;DHT22;7950;42.744;23.174;2023-04-01T13:50:58;14.30;99.90
15700;DHT22;7950;42.744;23.174;2023-04-01T13:54:05;14.50;99.90
15700;DHT22;7950;42.744;23.174;2023-04-01T13:56:54;14.70;99.90
15700;DHT22;7950;42.744;23.174;2023-04-01T13:59:56;14.90;99.90
15700;DHT22;7950;42.744;23.174;2023-04-01T14:02:48;15.10;99.90
15700;DHT22;7950;42.744;23.174;2023-04-01T14:05:52;15.00;99.90
15700;DHT22;7950;42.744;23.174;2023-04-01T14:08:36;14.90;99.90
15700;DHT22;7950;42.744;23.174;2023-04-01T14:11:19;14.80;99.90
15700;DHT22;7950;42.744;23.174;2023-04-01T14:14:02;14.80;99.90
15700;DHT22;7950;42.744;23.174;2023-04-01T14:16:59;14.80;99.90
15700;DHT22;7950;42.744;23.174;2023-04-01T14:19:50;14.70;99.90
15700;DHT22;7950;42.744;23.174;2023-04-01T14:23:03;14.70;99.90
15700;DHT22;7950;42.744;23.174;2023-04-01T14:26:13;14.80;99.90
15700;DHT22;7950;42.744;23.174;2023-04-01T14:29:10;15.10;99.90
15700;DHT22;7950;42.744;23.174;2023-04-01T14:32:00;15.40;99.90
15700;DHT22;7950;42.744;23.174;2023-04-01T14:34:44;15.50;99.90
15700;DHT22;7950;42.744;23.174;2023-04-01T14:37:55;15.70;99.90
15700;DHT22;7950;42.744;23.174;2023-04-01T14:40:44;15.70;99.90
15700;DHT22;7950;42.744;23.174;2023-04-01T14:43:40;15.80;99.90
15700;DHT22;7950;42.744;23.174;2023-04-01T14:46:50;15.90;99.90
15700;DHT22;7950;42.744;23.174;2023-04-01T14:49:42;16.10;99.90
15700;DHT22;7950;42.744;23.174;2023-04-01T14:52:21;16.10;99.90
15700;DHT22;7950;42.744;23.174;2023-04-01T14:54:54;16.10;99.90
15700;DHT22;7950;42.744;23.174;2023-04-01T14:57:27;16.10;99.90
15700;DHT22;7950;42.744;23.174;2023-04-01T15:00:01;16.20;99.90
15700;DHT22;7950;42.744;23.174;2023-04-01T15:02:45;16.20;99.90
15700;DHT22;7950;42.744;23.174;2023-04-01T15:05:32;16.10;99.90
15700;DHT22;7950;42.744;23.174;2023-04-01T15:08:14;16.00;99.90
15700;DHT22;7950;42.744;23.174;2023-04-01T15:11:05;15.70;99.90
15700;DHT22;7950;42.744;23.174;2023-04-01T15:17:05;15.30;99.90
15700;DHT22;7950;42.744;23.174;2023-04-01T15:20:22;15.20;99.90
15700;DHT22;7950;42.744;23.174;2023-04-01T15:23:09;15.00;99.90
15700;DHT22;7950;42.744;23.174;2023-04-01T15:28:59;14.40;99.90
15700;DHT22;7950;42.744;23.174;2023-04-01T15:31:55;14.20;99.90
15700;DHT22;7950;42.744;23.174;2023-04-01T15:34:32;14.00;99.90
15700;DHT22;7950;42.744;23.174;2023-04-01T15:37:15;14.00;99.90
15700;DHT22;7950;42.744;23.174;2023-04-01T16:08:02;10.10;99.90
15700;DHT22;7950;42.744;23.174;2023-04-01T16:10:59;9.40;99.90
15700;DHT22;7950;42.744;23.174;2023-04-01T16:13:46;9.30;99.90
15700;DHT22;7950;42.744;23.174;2023-04-01T16:16:35;9.20;99.90
15700;DHT22;7950;42.744;23.174;2023-04-01T16:19:37;9.20;99.90
15700;DHT22;7950;42.744;23.174;2023-04-01T16:22:20;9.10;99.90
15700;DHT22;7950;42.744;23.174;2023-04-01T16:25:32;9.10;99.90
15700;DHT22;7950;42.744;23.174;2023-04-01T16:28:19;9.20;99.90
15700;DHT22;7950;42.744;23.174;2023-04-01T16:30:58;9.10;99.90
15700;DHT22;7950;42.744;23.174;2023-04-01T16:33:41;9.10;99.90
15700;DHT22;7950;42.744;23.174;2023-04-01T16:36:24;9.00;99.90
15700;DHT22;7950;42.744;23.174;2023-04-01T16:42:35;8.90;99.90
15700;DHT22;7950;42.744;23.174;2023-04-01T16:45:25;9.00;99.90
15700;DHT22;7950;42.744;23.174;2023-04-01T16:48:07;9.00;99.90
15700;DHT22;7950;42.744;23.174;2023-04-01T16:50:46;9.00;99.90
15700;DHT22;7950;42.744;23.174;2023-04-01T16:53:30;9.00;99.90
15700;DHT22;7950;42.744;23.174;2023-04-01T16:56:13;9.00;99.90
15700;DHT22;7950;42.744;23.174;2023-04-01T16:59:02;9.00;99.90
15700;DHT22;7950;42.744;23.174;2023-04-01T17:01:41;9.00;99.90
15700;DHT22;7950;42.744;23.174;2023-04-01T17:04:23;9.00;99.90
15700;DHT22;7950;42.744;23.174;2023-04-01T17:07:06;9.00;99.90
15700;DHT22;7950;42.744;23.174;2023-04-01T17:09:55;9.00;99.90
15700;DHT22;7950;42.744;23.174;2023-04-01T17:12:39;8.90;99.90
15700;DHT22;7950;42.744;23.174;2023-04-01T17:15:20;8.90;99.90
15700;DHT22;7950;42.744;23.174;2023-04-01T17:18:02;8.90;99.90
15700;DHT22;7950;42.744;23.174;2023-04-01T17:20:43;8.80;99.90
15700;DHT22;7950;42.744;23.174;2023-04-01T17:23:23;8.80;99.90
15700;DHT22;7950;42.744;23.174;2023-04-01T17:26:06;8.70;99.90
15700;DHT22;7950;42.744;23.174;2023-04-01T17:28:52;8.70;99.90
15700;DHT22;7950;42.744;23.174;2023-04-01T17:31:52;8.70;99.90
15700;DHT22;7950;42.744;23.174;2023-04-01T17:34:55;8.70;99.90
15700;DHT22;7950;42.744;23.174;2023-04-01T17:37:40;8.70;99.90
15700;DHT22;7950;42.744;23.174;2023-04-01T17:40:39;8.70;99.90
15700;DHT22;7950;42.744;23.174;2023-04-01T17:43:24;8.70;99.90
15700;DHT22;7950;42.744;23.174;2023-04-01T17:46:21;8.70;99.90
15700;DHT22;7950;42.744;23.174;2023-04-01T17:49:05;8.60;99.90
15700;DHT22;7950;42.744;23.174;2023-04-01T17:51:54;8.60;99.90
15700;DHT22;7950;42.744;23.174;2023-04-01T17:54:33;8.60;99.90
15700;DHT22;7950;42.744;23.174;2023-04-01T17:57:27;8.60;99.90
15700;DHT22;7950;42.744;23.174;2023-04-01T18:00:06;8.60;99.90
15700;DHT22;7950;42.744;23.174;2023-04-01T18:04:00;8.60;99.90
15700;DHT22;7950;42.744;23.174;2023-04-01T18:10:26;8.60;99.90
15700;DHT22;7950;42.744;23.174;2023-04-01T18:13:24;8.50;99.90
15700;DHT22;7950;42.744;23.174;2023-04-01T18:16:41;8.50;99.90
15700;DHT22;7950;42.744;23.174;2023-04-01T18:19:27;8.40;99.90
15700;DHT22;7950;42.744;23.174;2023-04-01T18:22:17;8.50;99.90
15700;DHT22;7950;42.744;23.174;2023-04-01T18:24:58;8.40;99.90
15700;DHT22;7950;42.744;23.174;2023-04-01T18:27:37;8.40;99.90
15700;DHT22;7950;42.744;23.174;2023-04-01T18:30:14;8.40;99.90
15700;DHT22;7950;42.744;23.174;2023-04-01T18:32:51;8.40;99.90
15700;DHT22;7950;42.744;23.174;2023-04-01T18:35:35;8.40;99.90
15700;DHT22;7950;42.744;23.174;2023-04-01T18:38:18;8.50;99.90
15700;DHT22;7950;42.744;23.174;2023-04-01T18:41:05;8.50;99.90
15700;DHT22;7950;42.744;23.174;2023-04-01T18:43:51;8.50;99.90
15700;DHT22;7950;42.744;23.174;2023-04-01T18:46:33;8.50;99.90
15700;DHT22;7950;42.744;23.174;2023-04-01T18:49:13;8.50;99.90
15700;DHT22;7950;42.744;23.174;2023-04-01T18:51:53;8.50;99.90
15700;DHT22;7950;42.744;23.174;2023-04-01T18:54:29;8.60;99.90
15700;DHT22;7950;42.744;23.174;2023-04-01T18:57:02;8.50;99.90
15700;DHT22;7950;42.744;23.174;2023-04-01T18:59:39;8.50;99.90
15700;DHT22;7950;42.744;23.174;2023-04-01T19:02:25;8.60;99.90
15700;DHT22;7950;42.744;23.174;2023-04-01T19:05:08;8.60;99.90
15700;DHT22;7950;42.744;23.174;2023-04-01T19:07:47;8.70;99.90
15700;DHT22;7950;42.744;23.174;2023-04-01T19:10:22;8.80;99.90
15700;DHT22;7950;42.744;23.174;2023-04-01T19:13:08;8.80;99.90
15700;DHT22;7950;42.744;23.174;2023-04-01T19:15:50;8.80;99.90
15700;DHT22;7950;42.744;23.174;2023-04-01T19:18:40;8.70;99.90
15700;DHT22;7950;42.744;23.174;2023-04-01T19:21:22;8.60;99.90
15700;DHT22;7950;42.744;23.174;2023-04-01T19:24:19;8.60;99.90
15700;DHT22;7950;42.744;23.174;2023-04-01T19:27:01;8.70;99.90
15700;DHT22;7950;42.744;23.174;2023-04-01T19:29:47;8.60;99.90
15700;DHT22;7950;42.744;23.174;2023-04-01T19:32:33;8.60;99.90